createdAt,value
2019-03-28T00:01:03.153Z,75.40
2019-03-28T00:03:31.160Z,75.50
2019-03-28T00:05:59.158Z,75.30
2019-03-28T00:08:27.171Z,75.40
2019-03-28T00:10:55.151Z,75.60
2019-03-28T00:13:23.171Z,75.60
2019-03-28T00:15:51.174Z,75.60
2019-03-28T00:18:19.153Z,75.50
2019-03-28T00:20:47.200Z,75.90
2019-03-28T00:23:33.159Z,75.90
2019-03-28T00:26:01.139Z,75.80
2019-03-28T00:28:29.440Z,75.70
2019-03-28T00:30:57.836Z,75.60
2019-03-28T00:33:26.234Z,75.30
2019-03-28T00:35:54.224Z,75.10
2019-03-28T00:38:22.220Z,75.00
2019-03-28T00:40:50.210Z,75.50
2019-03-28T00:43:18.195Z,75.60
2019-03-28T00:45:46.214Z,75.60
2019-03-28T00:48:14.200Z,75.30
2019-03-28T00:50:42.231Z,75.40
2019-03-28T00:53:10.225Z,75.20
2019-03-28T00:55:38.230Z,75.30
2019-03-28T00:58:06.264Z,75.10
2019-03-28T01:00:34.248Z,75.30
2019-03-28T01:03:02.689Z,75.50
2019-03-28T01:05:30.688Z,75.70
2019-03-28T01:07:58.700Z,75.80
2019-03-28T01:10:26.696Z,76.20
2019-03-28T01:12:54.668Z,75.90
2019-03-28T01:15:23.290Z,75.60
2019-03-28T01:17:51.493Z,75.80
2019-03-28T01:20:19.500Z,75.80
2019-03-28T01:22:47.525Z,75.70
2019-03-28T01:25:15.573Z,75.70
2019-03-28T01:27:43.571Z,75.50
2019-03-28T01:30:11.597Z,75.80
2019-03-28T01:32:39.617Z,75.90
2019-03-28T01:35:07.631Z,75.60
2019-03-28T01:37:35.670Z,75.50
2019-03-28T01:40:04.093Z,75.50
2019-03-28T01:42:32.074Z,75.50
2019-03-28T01:45:00.043Z,75.40
2019-03-28T01:47:28.065Z,75.50
2019-03-28T01:49:56.068Z,75.10
2019-03-28T01:52:24.033Z,75.40
2019-03-28T01:54:52.329Z,75.90
2019-03-28T01:57:20.343Z,75.80
2019-03-28T01:59:48.398Z,75.40
2019-03-28T02:02:16.385Z,75.50
2019-03-28T02:04:44.386Z,75.50
2019-03-28T02:07:12.391Z,75.80
2019-03-28T02:09:40.394Z,75.50
2019-03-28T02:12:08.407Z,75.60
2019-03-28T02:14:36.399Z,75.60
2019-03-28T02:17:04.412Z,75.80
2019-03-28T02:19:32.397Z,76.00
2019-03-28T02:22:00.381Z,76.00
2019-03-28T02:24:28.757Z,76.00
2019-03-28T02:26:56.735Z,75.90
2019-03-28T02:29:24.717Z,75.90
2019-03-28T02:31:52.721Z,75.90
2019-03-28T02:34:20.778Z,75.90
2019-03-28T02:36:48.750Z,75.70
2019-03-28T02:39:16.795Z,75.30
2019-03-28T02:41:44.796Z,75.50
2019-03-28T02:44:12.787Z,75.50
2019-03-28T02:46:40.795Z,75.60
2019-03-28T02:49:08.831Z,76.00
2019-03-28T02:51:36.844Z,75.90
2019-03-28T02:54:05.497Z,75.80
2019-03-28T02:56:33.633Z,75.60
2019-03-28T02:59:02.810Z,75.60
2019-03-28T03:01:31.090Z,75.60
2019-03-28T03:03:59.052Z,75.80
2019-03-28T03:06:27.043Z,75.70
2019-03-28T03:08:55.036Z,75.50
2019-03-28T03:11:23.069Z,75.70
2019-03-28T03:13:51.072Z,75.60
2019-03-28T03:16:19.472Z,75.00
2019-03-28T03:18:47.436Z,74.70
2019-03-28T03:21:15.444Z,74.70
2019-03-28T03:23:43.347Z,74.70
2019-03-28T03:26:11.332Z,75.20
2019-03-28T03:28:39.327Z,75.20
2019-03-28T03:31:07.329Z,75.60
2019-03-28T03:33:37.166Z,75.80
2019-03-28T03:36:05.522Z,75.60
2019-03-28T03:38:33.516Z,75.90
2019-03-28T03:41:01.490Z,76.30
2019-03-28T03:43:29.499Z,76.30
2019-03-28T03:45:57.458Z,76.30
2019-03-28T03:48:25.460Z,76.00
2019-03-28T03:50:53.465Z,75.80
2019-03-28T03:53:21.448Z,76.10
2019-03-28T03:55:49.437Z,76.10
2019-03-28T03:58:18.639Z,76.20
2019-03-28T04:00:47.178Z,76.00
2019-03-28T04:03:15.196Z,76.30
2019-03-28T04:05:43.672Z,76.00
2019-03-28T04:08:11.639Z,76.00
2019-03-28T04:10:39.660Z,76.10
2019-03-28T04:13:07.666Z,76.30
2019-03-28T04:15:35.664Z,76.40
2019-03-28T04:18:03.653Z,76.10
2019-03-28T04:20:31.616Z,75.80
2019-03-28T04:22:59.633Z,76.40
2019-03-28T04:25:27.619Z,76.70
2019-03-28T04:27:56.172Z,76.30
2019-03-28T04:30:24.148Z,75.70
2019-03-28T04:32:52.171Z,75.80
2019-03-28T04:35:20.172Z,76.30
2019-03-28T04:37:48.192Z,76.50
2019-03-28T04:40:16.172Z,76.40
2019-03-28T04:42:45.959Z,76.20
2019-03-28T04:45:14.319Z,76.10
2019-03-28T04:47:42.311Z,76.00
2019-03-28T04:50:10.568Z,76.10
2019-03-28T04:52:38.495Z,76.30
2019-03-28T04:55:07.291Z,76.40
2019-03-28T04:57:35.279Z,76.10
2019-03-28T05:00:03.679Z,76.20
2019-03-28T05:02:31.667Z,76.30
2019-03-28T05:04:59.655Z,76.10
2019-03-28T05:07:27.718Z,76.10
2019-03-28T05:09:55.733Z,75.90
2019-03-28T05:12:23.683Z,76.00
2019-03-28T05:14:51.704Z,76.00
2019-03-28T05:17:19.680Z,75.60
2019-03-28T05:19:48.344Z,75.50
2019-03-28T05:22:16.688Z,75.80
2019-03-28T05:24:44.683Z,75.70
2019-03-28T05:27:12.704Z,75.70
2019-03-28T05:29:40.753Z,75.60
2019-03-28T05:32:08.753Z,75.60
2019-03-28T05:34:36.721Z,75.60
2019-03-28T05:37:04.727Z,75.00
2019-03-28T05:39:32.747Z,75.30
2019-03-28T05:42:00.761Z,75.40
2019-03-28T05:44:28.780Z,74.80
2019-03-28T05:46:56.848Z,75.80
2019-03-28T05:49:24.863Z,75.80
2019-03-28T05:51:52.842Z,76.20
2019-03-28T05:54:20.839Z,76.10
2019-03-28T05:56:48.849Z,76.30
2019-03-28T05:59:16.837Z,76.30
2019-03-28T06:01:44.832Z,76.30
2019-03-28T06:04:13.798Z,76.10
2019-03-28T06:06:41.779Z,76.30
2019-03-28T06:09:09.763Z,76.10
2019-03-28T06:11:37.789Z,76.80
2019-03-28T06:14:05.738Z,77.20
2019-03-28T06:16:33.785Z,76.20
2019-03-28T06:19:01.772Z,74.20
2019-03-28T06:21:29.785Z,74.20
2019-03-28T06:23:57.780Z,74.60
2019-03-28T06:26:25.792Z,74.80
2019-03-28T06:28:53.803Z,75.30
2019-03-28T06:31:23.087Z,75.30
2019-03-28T06:33:51.132Z,75.30
2019-03-28T06:36:19.101Z,75.20
2019-03-28T06:38:47.085Z,75.10
2019-03-28T06:41:15.130Z,75.10
2019-03-28T06:43:43.160Z,73.10
2019-03-28T06:46:11.189Z,74.00
2019-03-28T06:48:39.220Z,73.60
2019-03-28T06:51:07.231Z,73.40
2019-03-28T06:53:35.235Z,72.90
2019-03-28T06:56:03.223Z,71.60
2019-03-28T06:58:31.223Z,71.80
2019-03-28T07:00:59.547Z,71.40
2019-03-28T07:03:27.639Z,71.20
2019-03-28T07:05:55.643Z,71.50
2019-03-28T07:08:23.629Z,71.00
2019-03-28T07:10:51.623Z,71.70
2019-03-28T07:13:19.658Z,71.20
2019-03-28T07:15:47.678Z,70.30
2019-03-28T07:18:15.645Z,71.00
2019-03-28T07:20:43.948Z,71.50
2019-03-28T07:23:11.916Z,70.20
2019-03-28T07:25:39.924Z,69.40
2019-03-28T07:28:07.886Z,70.10
2019-03-28T07:30:35.879Z,69.20
2019-03-28T07:33:03.879Z,69.50
2019-03-28T07:35:31.898Z,69.50
2019-03-28T07:37:59.909Z,71.30
2019-03-28T07:40:27.922Z,70.30
2019-03-28T07:42:55.930Z,70.70
2019-03-28T07:45:23.953Z,70.90
2019-03-28T07:47:51.969Z,70.90
2019-03-28T07:50:19.988Z,70.90
2019-03-28T07:52:47.962Z,70.40
2019-03-28T07:55:16.616Z,70.70
2019-03-28T07:57:44.897Z,70.60
2019-03-28T08:00:13.643Z,70.80
2019-03-28T08:02:41.623Z,71.50
2019-03-28T08:05:10.651Z,71.10
2019-03-28T08:07:45.048Z,71.90
2019-03-28T08:10:08.880Z,70.50
2019-03-28T08:12:36.865Z,70.60
2019-03-28T08:15:06.057Z,70.50
2019-03-28T08:17:34.017Z,70.60
2019-03-28T08:20:02.355Z,70.20
2019-03-28T08:22:30.404Z,69.50
2019-03-28T08:24:58.393Z,70.30
2019-03-28T08:27:26.445Z,69.60
2019-03-28T08:29:57.626Z,68.10
2019-03-28T08:32:25.787Z,68.50
2019-03-28T08:34:53.795Z,65.00
2019-03-28T08:37:21.777Z,66.70
2019-03-28T08:39:49.824Z,67.20
2019-03-28T08:42:17.845Z,65.80
2019-03-28T08:44:45.849Z,64.90
2019-03-28T08:47:13.902Z,64.30
2019-03-28T08:49:41.999Z,65.40
2019-03-28T08:52:11.730Z,67.00
2019-03-28T08:54:39.920Z,64.30
2019-03-28T08:57:07.951Z,62.70
2019-03-28T08:59:35.980Z,61.70
2019-03-28T09:02:05.127Z,63.20
2019-03-28T09:04:33.905Z,62.50
2019-03-28T09:07:02.000Z,63.00
2019-03-28T09:09:30.610Z,62.00
2019-03-28T09:11:58.923Z,62.20
2019-03-28T09:14:26.971Z,63.50
2019-03-28T09:16:54.995Z,60.50
2019-03-28T09:19:23.301Z,60.80
2019-03-28T09:21:51.405Z,59.30
2019-03-28T09:24:20.334Z,60.50
2019-03-28T09:26:48.328Z,60.50
2019-03-28T09:29:16.525Z,62.00
2019-03-28T09:31:44.658Z,59.40
2019-03-28T09:34:12.695Z,59.00
2019-03-28T09:36:40.724Z,59.60
2019-03-28T09:39:09.052Z,59.60
2019-03-28T09:41:37.067Z,59.30
2019-03-28T09:44:05.092Z,57.80
2019-03-28T09:46:33.078Z,59.00
2019-03-28T09:49:01.120Z,56.70
2019-03-28T09:51:29.177Z,56.70
2019-03-28T09:53:57.250Z,56.20
2019-03-28T09:56:25.276Z,57.30
2019-03-28T09:58:53.323Z,57.40
2019-03-28T10:01:21.312Z,56.00
2019-03-28T10:03:49.800Z,57.80
2019-03-28T10:06:17.872Z,56.50
2019-03-28T10:08:45.888Z,54.90
2019-03-28T10:11:13.939Z,53.10
2019-03-28T10:13:42.376Z,52.10
2019-03-28T10:16:10.317Z,50.80
2019-03-28T10:18:38.395Z,47.70
2019-03-28T10:21:06.412Z,46.00
2019-03-28T10:23:34.414Z,42.90
2019-03-28T10:26:02.555Z,40.80
2019-03-28T10:28:30.570Z,38.20
2019-03-28T10:30:58.762Z,39.20
2019-03-28T10:33:26.762Z,36.70
2019-03-28T10:35:54.755Z,34.40
2019-03-28T10:38:22.801Z,33.10
2019-03-28T10:40:50.882Z,31.80
2019-03-28T10:43:19.240Z,29.90
2019-03-28T10:45:47.296Z,30.50
2019-03-28T10:48:15.303Z,31.90
2019-03-28T10:50:45.819Z,30.00
2019-03-28T10:53:13.141Z,28.80
2019-03-28T10:55:41.282Z,26.60
2019-03-28T10:58:18.203Z,26.50
2019-03-28T11:00:39.120Z,26.00
2019-03-28T11:03:07.153Z,25.10
2019-03-28T11:05:35.149Z,25.70
2019-03-28T11:08:03.233Z,24.30
2019-03-28T11:10:31.333Z,24.00
2019-03-28T11:12:59.346Z,24.10
2019-03-28T11:15:27.354Z,24.40
2019-03-28T11:17:55.381Z,25.40
2019-03-28T11:20:23.458Z,26.00
2019-03-28T11:22:51.512Z,25.70
2019-03-28T11:25:19.511Z,24.60
2019-03-28T11:27:47.578Z,23.20
2019-03-28T11:30:18.319Z,24.90
2019-03-28T11:32:45.628Z,23.10
2019-03-28T11:35:13.649Z,23.80
2019-03-28T11:37:41.708Z,23.30
2019-03-28T11:40:09.966Z,24.00
2019-03-28T11:42:38.019Z,23.80
2019-03-28T11:45:09.223Z,23.50
2019-03-28T11:47:36.962Z,22.50
2019-03-28T11:50:06.722Z,22.60
2019-03-28T11:52:34.773Z,24.50
2019-03-28T11:55:03.316Z,22.60
2019-03-28T11:57:31.760Z,23.80
2019-03-28T12:00:00.786Z,25.40
2019-03-28T12:02:28.980Z,26.50
2019-03-28T12:04:57.329Z,26.20
2019-03-28T12:07:25.330Z,25.70
2019-03-28T12:09:53.644Z,25.80
2019-03-28T12:12:21.530Z,25.70
2019-03-28T12:14:49.556Z,25.30
2019-03-28T12:17:17.594Z,26.50
2019-03-28T12:19:45.601Z,29.70
2019-03-28T12:22:13.633Z,27.70
2019-03-28T12:24:41.656Z,27.40
2019-03-28T12:27:09.728Z,27.80
2019-03-28T12:29:37.764Z,28.90
2019-03-28T12:32:13.888Z,29.70
2019-03-28T12:34:35.615Z,29.20
2019-03-28T12:37:03.934Z,28.90
2019-03-28T12:39:32.058Z,29.60
2019-03-28T12:42:00.029Z,31.70
2019-03-28T12:44:28.107Z,33.20
2019-03-28T12:46:56.151Z,33.80
2019-03-28T12:49:24.597Z,33.90
2019-03-28T12:51:52.710Z,34.10
2019-03-28T12:54:21.050Z,35.40
2019-03-28T12:56:49.105Z,36.00
2019-03-28T12:59:17.136Z,36.90
2019-03-28T13:01:45.180Z,37.90
2019-03-28T13:04:13.219Z,37.20
2019-03-28T13:06:41.289Z,37.80
2019-03-28T13:09:09.967Z,39.50
2019-03-28T13:11:38.283Z,40.00
2019-03-28T13:14:06.392Z,40.50
2019-03-28T13:16:34.410Z,40.10
2019-03-28T13:19:02.450Z,39.50
2019-03-28T13:21:30.500Z,38.40
2019-03-28T13:23:58.508Z,38.90
2019-03-28T13:26:26.570Z,35.40
2019-03-28T13:28:54.646Z,37.20
2019-03-28T13:31:22.886Z,36.80
2019-03-28T13:33:50.946Z,39.20
2019-03-28T13:36:18.998Z,39.20
2019-03-28T13:38:47.065Z,38.50
2019-03-28T13:41:15.086Z,38.90
2019-03-28T13:43:43.140Z,37.40
2019-03-28T13:46:11.149Z,36.90
2019-03-28T13:48:39.194Z,38.00
2019-03-28T13:51:07.228Z,37.70
2019-03-28T13:53:39.852Z,39.40
2019-03-28T13:56:05.138Z,40.60
2019-03-28T13:58:33.126Z,41.70
2019-03-28T14:01:01.228Z,40.50
2019-03-28T14:03:29.273Z,40.70
2019-03-28T14:05:57.671Z,41.10
2019-03-28T14:08:25.715Z,41.50
2019-03-28T14:10:53.802Z,41.00
2019-03-28T14:13:21.862Z,40.90
2019-03-28T14:15:49.883Z,40.80
2019-03-28T14:18:17.912Z,40.00
2019-03-28T14:20:45.999Z,39.40
2019-03-28T14:23:14.043Z,38.80
2019-03-28T14:25:42.051Z,38.50
2019-03-28T14:28:10.097Z,36.80
2019-03-28T14:30:39.548Z,35.50
2019-03-28T14:33:11.496Z,37.00
2019-03-28T14:35:37.655Z,34.80
2019-03-28T14:38:05.765Z,32.90
2019-03-28T14:40:33.845Z,30.90
2019-03-28T14:43:01.944Z,27.40
2019-03-28T14:45:30.040Z,28.70
2019-03-28T14:47:58.038Z,31.50
2019-03-28T14:50:34.843Z,33.50
2019-03-28T14:53:02.887Z,34.50
2019-03-28T14:55:32.331Z,36.90
2019-03-28T14:58:00.776Z,39.10
2019-03-28T15:00:54.001Z,40.50
2019-03-28T15:03:27.018Z,41.20
2019-03-28T15:05:51.822Z,41.70
2019-03-28T15:08:19.931Z,41.10
2019-03-28T15:10:47.958Z,41.20
2019-03-28T15:13:16.126Z,42.30
2019-03-28T15:15:44.205Z,42.20
2019-03-28T15:18:12.980Z,42.10
2019-03-28T15:20:41.053Z,42.70
2019-03-28T15:23:09.078Z,44.10
2019-03-28T15:25:37.648Z,44.20
2019-03-28T15:28:05.675Z,46.00
2019-03-28T15:30:33.688Z,45.50
2019-03-28T15:33:01.713Z,46.00
2019-03-28T15:35:30.067Z,45.70
2019-03-28T15:37:58.094Z,45.70
2019-03-28T15:40:26.546Z,46.10
2019-03-28T15:42:54.625Z,46.00
2019-03-28T15:45:22.638Z,46.30
2019-03-28T15:47:52.191Z,46.00
2019-03-28T15:50:20.550Z,46.40
2019-03-28T15:52:48.568Z,46.40
2019-03-28T15:55:16.593Z,47.00
2019-03-28T15:57:44.672Z,48.60
2019-03-28T16:00:14.890Z,50.00
2019-03-28T16:02:42.927Z,49.80
2019-03-28T16:05:11.088Z,49.40
2019-03-28T16:07:39.147Z,48.80
2019-03-28T16:10:07.846Z,47.60
2019-03-28T16:12:35.854Z,47.50
2019-03-28T16:15:04.363Z,47.80
2019-03-28T16:17:32.464Z,47.90
2019-03-28T16:20:00.550Z,49.50
2019-03-28T16:22:28.907Z,50.40
2019-03-28T16:24:56.941Z,50.70
2019-03-28T16:27:24.999Z,49.60
2019-03-28T16:29:54.482Z,50.10
2019-03-28T16:32:22.681Z,50.90
2019-03-28T16:34:50.730Z,51.00
2019-03-28T16:37:18.779Z,51.50
2019-03-28T16:39:49.838Z,52.80
2019-03-28T16:42:16.699Z,51.90
2019-03-28T16:44:44.747Z,52.90
2019-03-28T16:47:12.805Z,52.70
2019-03-28T16:49:40.827Z,52.60
2019-03-28T16:52:08.905Z,53.20
2019-03-28T16:54:37.069Z,53.00
2019-03-28T16:57:05.408Z,52.80
2019-03-28T16:59:33.502Z,52.80
2019-03-28T17:02:01.503Z,52.40
2019-03-28T17:04:29.538Z,53.50
2019-03-28T17:06:57.562Z,53.40
2019-03-28T17:09:26.476Z,53.60
2019-03-28T17:11:55.509Z,54.50
2019-03-28T17:14:24.009Z,54.60
2019-03-28T17:16:52.054Z,54.50
2019-03-28T17:19:20.296Z,54.90
2019-03-28T17:21:48.345Z,55.10
2019-03-28T17:24:16.538Z,55.60
2019-03-28T17:26:44.645Z,55.10
2019-03-28T17:29:12.716Z,55.10
2019-03-28T17:31:40.788Z,55.50
2019-03-28T17:34:08.873Z,55.50
2019-03-28T17:36:37.010Z,55.50
2019-03-28T17:39:06.284Z,55.60
2019-03-28T17:41:34.339Z,55.80
2019-03-28T17:44:02.420Z,56.40
2019-03-28T17:46:30.879Z,56.40
2019-03-28T17:48:59.574Z,56.90
2019-03-28T17:51:28.130Z,57.20
2019-03-28T17:53:56.364Z,57.50
2019-03-28T17:56:24.584Z,57.10
2019-03-28T17:58:52.626Z,57.30
2019-03-28T18:01:20.906Z,57.00
2019-03-28T18:03:48.971Z,57.40
2019-03-28T18:06:16.985Z,57.40
2019-03-28T18:08:45.664Z,57.70
2019-03-28T18:11:13.951Z,57.00
2019-03-28T18:13:42.298Z,57.30
2019-03-28T18:16:10.356Z,57.70
2019-03-28T18:18:38.438Z,58.30
2019-03-28T18:21:06.534Z,58.90
2019-03-28T18:23:34.668Z,58.80
2019-03-28T18:26:02.749Z,58.80
2019-03-28T18:28:31.681Z,58.40
2019-03-28T18:31:00.050Z,58.60
2019-03-28T18:33:28.140Z,59.20
2019-03-28T18:35:56.543Z,58.80
2019-03-28T18:38:25.035Z,58.80
2019-03-28T18:40:53.183Z,59.10
2019-03-28T18:43:21.256Z,59.40
2019-03-28T18:45:49.345Z,58.80
2019-03-28T18:48:28.139Z,58.90
2019-03-28T18:50:48.056Z,59.60
2019-03-28T18:53:16.177Z,59.60
2019-03-28T18:55:44.312Z,59.50
2019-03-28T18:58:12.516Z,60.00
2019-03-28T19:00:40.580Z,59.70
2019-03-28T19:03:09.021Z,60.30
2019-03-28T19:05:37.095Z,60.70
2019-03-28T19:08:05.386Z,61.50
2019-03-28T19:10:33.379Z,61.60
2019-03-28T19:13:04.557Z,61.60
2019-03-28T19:15:31.780Z,61.60
2019-03-28T19:17:59.999Z,62.00
2019-03-28T19:20:28.026Z,62.20
2019-03-28T19:22:56.162Z,61.80
2019-03-28T19:25:24.196Z,62.80
2019-03-28T19:27:52.386Z,63.10
2019-03-28T19:30:30.340Z,63.10
2019-03-28T19:32:59.112Z,62.90
2019-03-28T19:35:32.969Z,63.50
2019-03-28T19:37:57.245Z,63.50
2019-03-28T19:40:25.781Z,63.20
2019-03-28T19:42:53.884Z,63.30
2019-03-28T19:45:32.097Z,63.80
2019-03-28T19:48:00.300Z,64.40
2019-03-28T19:50:29.445Z,64.40
2019-03-28T19:52:57.897Z,64.20
2019-03-28T19:55:26.305Z,64.00
2019-03-28T19:57:54.657Z,64.20
2019-03-28T20:00:22.759Z,64.00
2019-03-28T20:02:50.833Z,64.70
2019-03-28T20:05:19.019Z,64.90
2019-03-28T20:07:47.099Z,64.80
2019-03-28T20:10:16.629Z,64.80
2019-03-28T20:12:45.163Z,65.50
2019-03-28T20:15:14.150Z,65.20
2019-03-28T20:17:42.265Z,65.40
2019-03-28T20:20:10.477Z,65.40
2019-03-28T20:22:38.510Z,65.90
2019-03-28T20:25:07.372Z,66.00
2019-03-28T20:27:35.494Z,65.60
2019-03-28T20:30:03.970Z,65.70
2019-03-28T20:32:32.543Z,65.70
2019-03-28T20:35:00.608Z,66.30
2019-03-28T20:37:28.741Z,66.40
2019-03-28T20:39:56.863Z,67.00
2019-03-28T20:42:24.933Z,67.00
2019-03-28T20:44:53.041Z,67.30
2019-03-28T20:47:21.136Z,67.10
2019-03-28T20:49:49.228Z,67.40
2019-03-28T20:52:17.387Z,67.70
2019-03-28T20:54:45.547Z,67.60
2019-03-28T20:57:13.696Z,67.50
2019-03-28T20:59:41.886Z,67.80
2019-03-28T21:02:09.972Z,67.70
2019-03-28T21:04:38.384Z,67.90
2019-03-28T21:07:06.961Z,68.10
2019-03-28T21:09:35.061Z,67.80
2019-03-28T21:12:03.102Z,67.80
2019-03-28T21:14:31.178Z,67.80
2019-03-28T21:16:59.273Z,67.70
2019-03-28T21:19:27.381Z,67.40
2019-03-28T21:21:55.452Z,67.80
2019-03-28T21:24:23.925Z,68.00
2019-03-28T21:26:52.044Z,68.00
2019-03-28T21:29:21.018Z,68.90
2019-03-28T21:31:50.372Z,68.70
2019-03-28T21:34:19.047Z,68.50
2019-03-28T21:36:47.152Z,68.80
2019-03-28T21:39:15.681Z,68.90
2019-03-28T21:41:43.734Z,69.30
2019-03-28T21:44:11.817Z,70.20
2019-03-28T21:46:39.857Z,70.10
2019-03-28T21:49:08.869Z,70.20
2019-03-28T21:51:37.458Z,70.30
2019-03-28T21:54:05.565Z,70.30
2019-03-28T21:56:33.941Z,70.90
2019-03-28T21:59:02.033Z,70.60
2019-03-28T22:01:30.049Z,70.90
2019-03-28T22:03:58.094Z,70.70
2019-03-28T22:06:26.211Z,70.70
2019-03-28T22:08:54.224Z,71.10
2019-03-28T22:11:23.084Z,71.10
2019-03-28T22:13:51.156Z,70.60
2019-03-28T22:16:19.171Z,70.70
2019-03-28T22:18:47.204Z,71.40
2019-03-28T22:21:15.255Z,71.30
2019-03-28T22:23:43.280Z,71.60
2019-03-28T22:26:11.345Z,72.30
2019-03-28T22:28:39.376Z,72.50
2019-03-28T22:31:07.864Z,72.60
2019-03-28T22:33:35.969Z,73.20
2019-03-28T22:36:04.280Z,73.10
2019-03-28T22:38:32.308Z,73.00
2019-03-28T22:41:00.399Z,73.30
2019-03-28T22:43:28.426Z,73.20
2019-03-28T22:45:56.901Z,73.10
2019-03-28T22:48:24.886Z,73.50
2019-03-28T22:50:52.937Z,73.80
2019-03-28T22:53:20.978Z,73.50
2019-03-28T22:55:48.986Z,73.40
2019-03-28T22:58:17.067Z,73.70
2019-03-28T23:00:46.653Z,73.80
2019-03-28T23:03:16.418Z,74.10
2019-03-28T23:05:44.429Z,74.50
2019-03-28T23:08:12.436Z,74.70
2019-03-28T23:10:40.462Z,74.80
2019-03-28T23:13:08.470Z,74.90
2019-03-28T23:15:37.053Z,74.80
2019-03-28T23:18:05.331Z,74.70
2019-03-28T23:20:33.862Z,74.00
2019-03-28T23:23:02.501Z,73.50
2019-03-28T23:25:30.886Z,73.60
2019-03-28T23:27:58.918Z,73.60
2019-03-28T23:30:26.898Z,73.90
2019-03-28T23:32:54.902Z,73.90
2019-03-28T23:35:22.941Z,73.90
2019-03-28T23:37:51.062Z,74.00
2019-03-28T23:40:19.033Z,74.20
2019-03-28T23:42:47.051Z,74.20
2019-03-28T23:45:15.435Z,74.10
2019-03-28T23:47:43.438Z,74.20
2019-03-28T23:50:11.452Z,74.50
2019-03-28T23:52:39.440Z,74.60
2019-03-28T23:55:07.767Z,74.60
2019-03-28T23:57:35.798Z,74.80
